Lenox, Iowa
Current Conditions -  °F | °C
As of 10:35 AM on Friday 31 Oct 2014 (Local Time) from KCSQ Reporting Station
Clear Clear  
Wind Chill: 20°   Ceiling: Unl
Heat Index: 32°   Visibility: 10mi
Dew Point: 18°   Wind: 20mph
Humidity: 55%   Direction: 360°N
Pressure: 30.5"   Gusts: NA
Location:  40.88°N, 94.56°W
Report Text: KCSQ 311535Z AUTO 36017KT 10SM CLR M00/M08 A3050 RMK AO2
Loading
Personal Weather Stations






























Interactive Weather Map
Tropical Storm Tracking
New forecast layout! Learn more

10-Day Weather Forecast

Advertisements
Track Severe Weather on mobile